sensor_id;sensor_type;location;lat;lon;timestamp;temperature;humidity
6486;DHT22;3276;48.490;9.222;2024-02-04T00:01:43;7.70;7.20
6486;DHT22;3276;48.490;9.222;2024-02-04T00:04:09;7.60;6.30
6486;DHT22;3276;48.490;9.222;2024-02-04T00:06:34;7.60;7.20
6486;DHT22;3276;48.490;9.222;2024-02-04T00:08:59;7.60;6.40
6486;DHT22;3276;48.490;9.222;2024-02-04T00:11:25;7.60;7.00
6486;DHT22;3276;48.490;9.222;2024-02-04T00:13:51;7.60;7.00
6486;DHT22;3276;48.490;9.222;2024-02-04T00:16:17;7.60;6.10
6486;DHT22;3276;48.490;9.222;2024-02-04T00:18:43;7.60;6.60
6486;DHT22;3276;48.490;9.222;2024-02-04T00:21:08;7.70;6.10
6486;DHT22;3276;48.490;9.222;2024-02-04T00:23:34;7.60;6.00
6486;DHT22;3276;48.490;9.222;2024-02-04T00:26:00;7.60;6.20
6486;DHT22;3276;48.490;9.222;2024-02-04T00:28:25;7.70;6.50
6486;DHT22;3276;48.490;9.222;2024-02-04T00:30:52;7.70;6.20
6486;DHT22;3276;48.490;9.222;2024-02-04T00:33:23;7.70;5.90
6486;DHT22;3276;48.490;9.222;2024-02-04T00:35:49;7.60;6.20
6486;DHT22;3276;48.490;9.222;2024-02-04T00:38:15;7.60;5.90
6486;DHT22;3276;48.490;9.222;2024-02-04T00:40:41;7.60;5.80
6486;DHT22;3276;48.490;9.222;2024-02-04T00:43:06;7.50;6.10
6486;DHT22;3276;48.490;9.222;2024-02-04T00:45:32;7.50;6.60
6486;DHT22;3276;48.490;9.222;2024-02-04T00:47:57;7.50;6.80
6486;DHT22;3276;48.490;9.222;2024-02-04T00:50:23;7.50;7.00
6486;DHT22;3276;48.490;9.222;2024-02-04T00:52:48;7.50;6.90
6486;DHT22;3276;48.490;9.222;2024-02-04T00:55:14;7.50;7.10
6486;DHT22;3276;48.490;9.222;2024-02-04T00:57:40;7.50;6.60
6486;DHT22;3276;48.490;9.222;2024-02-04T01:00:06;7.60;6.60
6486;DHT22;3276;48.490;9.222;2024-02-04T01:02:33;7.50;6.30
6486;DHT22;3276;48.490;9.222;2024-02-04T01:04:59;7.50;6.40
6486;DHT22;3276;48.490;9.222;2024-02-04T01:07:25;7.50;6.70
6486;DHT22;3276;48.490;9.222;2024-02-04T01:09:50;7.50;7.20
6486;DHT22;3276;48.490;9.222;2024-02-04T01:12:16;7.50;7.10
6486;DHT22;3276;48.490;9.222;2024-02-04T01:14:41;7.50;6.90
6486;DHT22;3276;48.490;9.222;2024-02-04T01:17:07;7.50;6.80
6486;DHT22;3276;48.490;9.222;2024-02-04T01:19:33;7.50;6.90
6486;DHT22;3276;48.490;9.222;2024-02-04T01:21:58;7.50;6.50
6486;DHT22;3276;48.490;9.222;2024-02-04T01:24:24;7.50;6.40
6486;DHT22;3276;48.490;9.222;2024-02-04T01:26:50;7.60;6.30
6486;DHT22;3276;48.490;9.222;2024-02-04T01:29:16;7.60;5.80
6486;DHT22;3276;48.490;9.222;2024-02-04T01:31:41;7.50;6.10
6486;DHT22;3276;48.490;9.222;2024-02-04T01:34:07;7.50;6.60
6486;DHT22;3276;48.490;9.222;2024-02-04T01:36:33;7.50;6.20
6486;DHT22;3276;48.490;9.222;2024-02-04T01:38:58;7.50;6.30
6486;DHT22;3276;48.490;9.222;2024-02-04T01:41:24;7.40;5.90
6486;DHT22;3276;48.490;9.222;2024-02-04T01:43:53;7.40;6.20
6486;DHT22;3276;48.490;9.222;2024-02-04T01:46:18;7.20;6.80
6486;DHT22;3276;48.490;9.222;2024-02-04T01:48:44;7.10;7.50
6486;DHT22;3276;48.490;9.222;2024-02-04T01:51:10;7.10;7.90
6486;DHT22;3276;48.490;9.222;2024-02-04T01:53:36;7.00;8.50
6486;DHT22;3276;48.490;9.222;2024-02-04T01:56:04;7.00;8.20
6486;DHT22;3276;48.490;9.222;2024-02-04T01:58:30;7.00;8.50
6486;DHT22;3276;48.490;9.222;2024-02-04T02:00:56;7.00;8.50
6486;DHT22;3276;48.490;9.222;2024-02-04T02:03:23;7.00;8.60
6486;DHT22;3276;48.490;9.222;2024-02-04T02:05:49;7.00;8.50
6486;DHT22;3276;48.490;9.222;2024-02-04T02:08:16;7.10;8.60
6486;DHT22;3276;48.490;9.222;2024-02-04T02:10:41;7.10;8.60
6486;DHT22;3276;48.490;9.222;2024-02-04T02:13:22;7.20;8.50
6486;DHT22;3276;48.490;9.222;2024-02-04T02:15:52;7.20;7.80
6486;DHT22;3276;48.490;9.222;2024-02-04T02:18:37;7.20;7.80
6486;DHT22;3276;48.490;9.222;2024-02-04T02:26:18;7.10;8.60
6486;DHT22;3276;48.490;9.222;2024-02-04T02:28:44;7.10;8.60
6486;DHT22;3276;48.490;9.222;2024-02-04T02:31:09;7.20;8.60
6486;DHT22;3276;48.490;9.222;2024-02-04T02:33:35;7.10;8.30
6486;DHT22;3276;48.490;9.222;2024-02-04T02:36:02;7.20;8.60
6486;DHT22;3276;48.490;9.222;2024-02-04T02:38:40;7.20;8.30
6486;DHT22;3276;48.490;9.222;2024-02-04T02:41:08;7.20;8.60
6486;DHT22;3276;48.490;9.222;2024-02-04T02:43:35;7.20;8.70
6486;DHT22;3276;48.490;9.222;2024-02-04T02:46:04;7.20;8.60
6486;DHT22;3276;48.490;9.222;2024-02-04T02:48:30;7.10;8.60
6486;DHT22;3276;48.490;9.222;2024-02-04T02:50:55;7.10;8.60
6486;DHT22;3276;48.490;9.222;2024-02-04T02:53:21;7.00;8.80
6486;DHT22;3276;48.490;9.222;2024-02-04T02:55:46;7.00;9.40
6486;DHT22;3276;48.490;9.222;2024-02-04T02:58:13;7.10;9.20
6486;DHT22;3276;48.490;9.222;2024-02-04T03:00:39;7.00;9.40
6486;DHT22;3276;48.490;9.222;2024-02-04T03:03:04;7.00;9.30
6486;DHT22;3276;48.490;9.222;2024-02-04T03:05:30;7.00;9.90
6486;DHT22;3276;48.490;9.222;2024-02-04T03:07:55;7.00;9.90
6486;DHT22;3276;48.490;9.222;2024-02-04T03:10:21;7.00;10.40
6486;DHT22;3276;48.490;9.222;2024-02-04T03:12:46;7.00;9.90
6486;DHT22;3276;48.490;9.222;2024-02-04T03:15:12;7.10;10.10
6486;DHT22;3276;48.490;9.222;2024-02-04T03:17:37;7.00;10.10
6486;DHT22;3276;48.490;9.222;2024-02-04T03:20:03;7.10;9.80
6486;DHT22;3276;48.490;9.222;2024-02-04T03:22:29;7.10;10.00
6486;DHT22;3276;48.490;9.222;2024-02-04T03:24:54;7.10;10.30
6486;DHT22;3276;48.490;9.222;2024-02-04T03:27:20;7.10;10.10
6486;DHT22;3276;48.490;9.222;2024-02-04T03:29:47;7.10;10.10
6486;DHT22;3276;48.490;9.222;2024-02-04T03:32:13;7.10;9.70
6486;DHT22;3276;48.490;9.222;2024-02-04T03:34:40;7.20;9.60
6486;DHT22;3276;48.490;9.222;2024-02-04T03:37:06;7.10;9.30
6486;DHT22;3276;48.490;9.222;2024-02-04T03:39:34;7.20;9.80
6486;DHT22;3276;48.490;9.222;2024-02-04T03:42:00;7.20;9.90
6486;DHT22;3276;48.490;9.222;2024-02-04T03:44:25;7.20;9.40
6486;DHT22;3276;48.490;9.222;2024-02-04T03:46:51;7.30;9.20
6486;DHT22;3276;48.490;9.222;2024-02-04T03:49:17;7.30;8.70
6486;DHT22;3276;48.490;9.222;2024-02-04T03:51:43;7.30;8.70
6486;DHT22;3276;48.490;9.222;2024-02-04T03:54:09;7.20;8.60
6486;DHT22;3276;48.490;9.222;2024-02-04T03:56:34;7.20;8.60
6486;DHT22;3276;48.490;9.222;2024-02-04T03:59:00;7.20;9.10
6486;DHT22;3276;48.490;9.222;2024-02-04T04:01:25;7.30;8.70
6486;DHT22;3276;48.490;9.222;2024-02-04T04:03:51;7.30;8.70
6486;DHT22;3276;48.490;9.222;2024-02-04T04:06:16;7.30;8.70
6486;DHT22;3276;48.490;9.222;2024-02-04T04:08:42;7.20;8.60
6486;DHT22;3276;48.490;9.222;2024-02-04T04:11:09;7.20;9.40
6486;DHT22;3276;48.490;9.222;2024-02-04T04:13:35;7.20;9.00
6486;DHT22;3276;48.490;9.222;2024-02-04T04:16:01;7.10;9.50
6486;DHT22;3276;48.490;9.222;2024-02-04T04:18:27;7.20;9.60
6486;DHT22;3276;48.490;9.222;2024-02-04T04:20:52;7.20;9.40
6486;DHT22;3276;48.490;9.222;2024-02-04T04:23:18;7.20;9.40
6486;DHT22;3276;48.490;9.222;2024-02-04T04:25:47;7.10;9.40
6486;DHT22;3276;48.490;9.222;2024-02-04T04:28:12;7.10;9.70
6486;DHT22;3276;48.490;9.222;2024-02-04T04:30:38;7.10;10.10
6486;DHT22;3276;48.490;9.222;2024-02-04T04:33:04;7.10;9.70
6486;DHT22;3276;48.490;9.222;2024-02-04T04:35:29;7.10;9.90
6486;DHT22;3276;48.490;9.222;2024-02-04T04:37:55;7.00;10.10
6486;DHT22;3276;48.490;9.222;2024-02-04T04:40:20;7.00;10.30
6486;DHT22;3276;48.490;9.222;2024-02-04T04:42:46;7.00;10.20
6486;DHT22;3276;48.490;9.222;2024-02-04T04:45:11;6.90;10.50
6486;DHT22;3276;48.490;9.222;2024-02-04T04:47:37;6.90;10.30
6486;DHT22;3276;48.490;9.222;2024-02-04T04:50:04;6.90;10.30
6486;DHT22;3276;48.490;9.222;2024-02-04T04:52:31;6.90;10.30
6486;DHT22;3276;48.490;9.222;2024-02-04T04:54:56;6.90;10.20
6486;DHT22;3276;48.490;9.222;2024-02-04T04:57:22;6.80;10.60
6486;DHT22;3276;48.490;9.222;2024-02-04T04:59:51;6.70;10.60
6486;DHT22;3276;48.490;9.222;2024-02-04T05:02:16;6.70;11.20
6486;DHT22;3276;48.490;9.222;2024-02-04T05:04:45;6.70;11.20
6486;DHT22;3276;48.490;9.222;2024-02-04T05:07:11;6.70;11.00
6486;DHT22;3276;48.490;9.222;2024-02-04T05:09:37;6.60;11.00
6486;DHT22;3276;48.490;9.222;2024-02-04T05:12:03;6.60;11.30
6486;DHT22;3276;48.490;9.222;2024-02-04T05:14:29;6.70;11.70
6486;DHT22;3276;48.490;9.222;2024-02-04T05:16:54;6.80;10.80
6486;DHT22;3276;48.490;9.222;2024-02-04T05:19:20;6.70;10.20
6486;DHT22;3276;48.490;9.222;2024-02-04T05:21:45;6.80;10.20
6486;DHT22;3276;48.490;9.222;2024-02-04T05:24:11;6.90;10.30
6486;DHT22;3276;48.490;9.222;2024-02-04T05:26:37;6.90;9.30
6486;DHT22;3276;48.490;9.222;2024-02-04T05:29:02;6.90;10.30
6486;DHT22;3276;48.490;9.222;2024-02-04T05:31:28;7.00;9.30
6486;DHT22;3276;48.490;9.222;2024-02-04T05:33:53;7.00;9.00
6486;DHT22;3276;48.490;9.222;2024-02-04T05:36:19;7.00;9.20
6486;DHT22;3276;48.490;9.222;2024-02-04T05:38:45;7.10;8.60
6486;DHT22;3276;48.490;9.222;2024-02-04T05:41:11;7.10;8.60
6486;DHT22;3276;48.490;9.222;2024-02-04T05:43:36;7.00;8.50
6486;DHT22;3276;48.490;9.222;2024-02-04T05:46:02;7.00;8.50
6486;DHT22;3276;48.490;9.222;2024-02-04T05:48:28;7.00;8.50
6486;DHT22;3276;48.490;9.222;2024-02-04T05:50:53;7.10;8.60
6486;DHT22;3276;48.490;9.222;2024-02-04T05:53:19;7.10;8.60
6486;DHT22;3276;48.490;9.222;2024-02-04T05:55:44;7.00;8.50
6486;DHT22;3276;48.490;9.222;2024-02-04T05:58:10;7.00;9.00
6486;DHT22;3276;48.490;9.222;2024-02-04T06:00:36;7.00;8.50
6486;DHT22;3276;48.490;9.222;2024-02-04T06:03:01;7.00;8.50
6486;DHT22;3276;48.490;9.222;2024-02-04T06:05:27;7.00;8.60
6486;DHT22;3276;48.490;9.222;2024-02-04T06:07:52;7.00;9.20
6486;DHT22;3276;48.490;9.222;2024-02-04T06:10:18;7.00;9.20
6486;DHT22;3276;48.490;9.222;2024-02-04T06:12:44;7.00;9.20
6486;DHT22;3276;48.490;9.222;2024-02-04T06:15:14;7.00;9.20
6486;DHT22;3276;48.490;9.222;2024-02-04T06:17:40;7.00;9.00
6486;DHT22;3276;48.490;9.222;2024-02-04T06:20:05;7.00;8.50
6486;DHT22;3276;48.490;9.222;2024-02-04T06:22:32;7.00;8.90
6486;DHT22;3276;48.490;9.222;2024-02-04T06:24:57;7.00;8.90
6486;DHT22;3276;48.490;9.222;2024-02-04T06:27:23;7.00;8.50
6486;DHT22;3276;48.490;9.222;2024-02-04T06:29:49;7.00;9.00
6486;DHT22;3276;48.490;9.222;2024-02-04T06:32:14;7.00;9.30
6486;DHT22;3276;48.490;9.222;2024-02-04T06:34:40;7.10;8.60
6486;DHT22;3276;48.490;9.222;2024-02-04T06:37:05;7.10;8.60
6486;DHT22;3276;48.490;9.222;2024-02-04T06:39:31;7.00;8.50
6486;DHT22;3276;48.490;9.222;2024-02-04T06:41:56;7.00;8.50
6486;DHT22;3276;48.490;9.222;2024-02-04T06:44:22;7.00;8.50
6486;DHT22;3276;48.490;9.222;2024-02-04T06:46:48;7.00;8.50
6486;DHT22;3276;48.490;9.222;2024-02-04T06:49:13;7.00;8.50
6486;DHT22;3276;48.490;9.222;2024-02-04T06:51:43;7.00;8.50
6486;DHT22;3276;48.490;9.222;2024-02-04T06:54:10;7.00;9.00
6486;DHT22;3276;48.490;9.222;2024-02-04T06:56:35;7.00;9.40
6486;DHT22;3276;48.490;9.222;2024-02-04T06:59:02;7.00;9.40
6486;DHT22;3276;48.490;9.222;2024-02-04T07:01:27;7.00;9.40
6486;DHT22;3276;48.490;9.222;2024-02-04T07:03:53;7.00;9.50
6486;DHT22;3276;48.490;9.222;2024-02-04T07:06:19;7.00;9.60
6486;DHT22;3276;48.490;9.222;2024-02-04T07:08:44;7.00;9.70
6486;DHT22;3276;48.490;9.222;2024-02-04T07:11:10;7.00;9.70
6486;DHT22;3276;48.490;9.222;2024-02-04T07:13:35;7.10;9.50
6486;DHT22;3276;48.490;9.222;2024-02-04T07:16:01;7.10;9.00
6486;DHT22;3276;48.490;9.222;2024-02-04T07:18:26;7.10;8.60
6486;DHT22;3276;48.490;9.222;2024-02-04T07:20:52;7.10;8.60
6486;DHT22;3276;48.490;9.222;2024-02-04T07:23:17;7.10;8.60
6486;DHT22;3276;48.490;9.222;2024-02-04T07:25:43;7.10;7.90
6486;DHT22;3276;48.490;9.222;2024-02-04T07:28:08;7.20;8.50
6486;DHT22;3276;48.490;9.222;2024-02-04T07:30:34;7.30;8.10
6486;DHT22;3276;48.490;9.222;2024-02-04T07:33:00;7.30;7.40
6486;DHT22;3276;48.490;9.222;2024-02-04T07:35:25;7.30;6.70
6486;DHT22;3276;48.490;9.222;2024-02-04T07:37:51;7.40;6.50
6486;DHT22;3276;48.490;9.222;2024-02-04T07:40:16;7.50;6.00
6486;DHT22;3276;48.490;9.222;2024-02-04T07:42:42;7.50;5.40
6486;DHT22;3276;48.490;9.222;2024-02-04T07:45:08;7.50;5.60
6486;DHT22;3276;48.490;9.222;2024-02-04T07:47:35;7.60;4.90
6486;DHT22;3276;48.490;9.222;2024-02-04T07:50:01;7.60;4.50
6486;DHT22;3276;48.490;9.222;2024-02-04T07:52:27;7.70;5.00
6486;DHT22;3276;48.490;9.222;2024-02-04T07:54:52;7.50;4.70
6486;DHT22;3276;48.490;9.222;2024-02-04T07:57:18;7.60;5.40
6486;DHT22;3276;48.490;9.222;2024-02-04T07:59:43;7.70;4.50
6486;DHT22;3276;48.490;9.222;2024-02-04T08:02:09;7.60;4.40
6486;DHT22;3276;48.490;9.222;2024-02-04T08:04:34;7.70;4.50
6486;DHT22;3276;48.490;9.222;2024-02-04T08:07:00;7.60;4.70
6486;DHT22;3276;48.490;9.222;2024-02-04T08:09:25;7.70;5.40
6486;DHT22;3276;48.490;9.222;2024-02-04T08:11:51;7.60;5.40
6486;DHT22;3276;48.490;9.222;2024-02-04T08:14:16;7.70;5.10
6486;DHT22;3276;48.490;9.222;2024-02-04T08:16:43;7.70;5.00
6486;DHT22;3276;48.490;9.222;2024-02-04T08:19:11;7.70;5.00
6486;DHT22;3276;48.490;9.222;2024-02-04T08:21:37;7.70;4.50
6486;DHT22;3276;48.490;9.222;2024-02-04T08:24:02;7.80;4.90
6486;DHT22;3276;48.490;9.222;2024-02-04T08:26:28;7.80;4.50
6486;DHT22;3276;48.490;9.222;2024-02-04T08:28:53;7.80;4.50
6486;DHT22;3276;48.490;9.222;2024-02-04T08:31:19;7.80;4.30
6486;DHT22;3276;48.490;9.222;2024-02-04T08:33:45;7.90;4.70
6486;DHT22;3276;48.490;9.222;2024-02-04T08:36:10;7.90;4.30
6486;DHT22;3276;48.490;9.222;2024-02-04T08:38:36;8.00;4.40
6486;DHT22;3276;48.490;9.222;2024-02-04T08:41:03;8.00;4.30
6486;DHT22;3276;48.490;9.222;2024-02-04T08:43:28;8.10;3.80
6486;DHT22;3276;48.490;9.222;2024-02-04T08:45:54;8.10;3.70
6486;DHT22;3276;48.490;9.222;2024-02-04T08:48:19;8.30;2.50
6486;DHT22;3276;48.490;9.222;2024-02-04T08:50:45;8.30;1.90
6486;DHT22;3276;48.490;9.222;2024-02-04T08:53:11;8.40;2.00
6486;DHT22;3276;48.490;9.222;2024-02-04T08:55:45;8.40;1.00
6486;DHT22;3276;48.490;9.222;2024-02-04T08:58:11;8.30;2.00
6486;DHT22;3276;48.490;9.222;2024-02-04T09:00:36;8.30;2.10
6486;DHT22;3276;48.490;9.222;2024-02-04T09:03:02;8.50;1.90
6486;DHT22;3276;48.490;9.222;2024-02-04T09:05:30;8.50;1.00
6486;DHT22;3276;48.490;9.222;2024-02-04T09:07:56;8.50;1.30
6486;DHT22;3276;48.490;9.222;2024-02-04T09:10:21;8.50;1.80
6486;DHT22;3276;48.490;9.222;2024-02-04T09:12:47;8.70;1.00
6486;DHT22;3276;48.490;9.222;2024-02-04T09:15:13;8.70;1.00
6486;DHT22;3276;48.490;9.222;2024-02-04T09:17:38;8.60;1.00
6486;DHT22;3276;48.490;9.222;2024-02-04T09:20:04;8.70;1.00
6486;DHT22;3276;48.490;9.222;2024-02-04T09:22:30;8.60;1.00
6486;DHT22;3276;48.490;9.222;2024-02-04T09:24:55;8.60;1.00
6486;DHT22;3276;48.490;9.222;2024-02-04T09:27:21;8.60;1.00
6486;DHT22;3276;48.490;9.222;2024-02-04T09:29:47;8.70;1.00
6486;DHT22;3276;48.490;9.222;2024-02-04T09:32:12;8.70;1.00
6486;DHT22;3276;48.490;9.222;2024-02-04T09:34:38;8.90;1.00
6486;DHT22;3276;48.490;9.222;2024-02-04T09:37:04;8.80;1.00
6486;DHT22;3276;48.490;9.222;2024-02-04T09:39:29;8.80;1.00
6486;DHT22;3276;48.490;9.222;2024-02-04T09:41:55;8.70;1.00
6486;DHT22;3276;48.490;9.222;2024-02-04T09:44:22;8.80;1.00
6486;DHT22;3276;48.490;9.222;2024-02-04T09:46:48;8.80;1.00
6486;DHT22;3276;48.490;9.222;2024-02-04T09:49:14;8.90;1.00
6486;DHT22;3276;48.490;9.222;2024-02-04T09:51:41;9.10;1.00
6486;DHT22;3276;48.490;9.222;2024-02-04T09:54:09;9.20;1.00
6486;DHT22;3276;48.490;9.222;2024-02-04T09:56:35;9.40;1.00
6486;DHT22;3276;48.490;9.222;2024-02-04T09:59:04;9.30;1.00
6486;DHT22;3276;48.490;9.222;2024-02-04T10:01:31;9.40;1.00
6486;DHT22;3276;48.490;9.222;2024-02-04T10:03:57;10.10;1.00
6486;DHT22;3276;48.490;9.222;2024-02-04T10:06:22;10.60;1.00
6486;DHT22;3276;48.490;9.222;2024-02-04T10:08:48;10.60;1.00
6486;DHT22;3276;48.490;9.222;2024-02-04T10:11:13;10.60;1.00
6486;DHT22;3276;48.490;9.222;2024-02-04T10:13:46;10.60;1.00
6486;DHT22;3276;48.490;9.222;2024-02-04T10:16:13;10.70;1.00
6486;DHT22;3276;48.490;9.222;2024-02-04T10:18:48;10.80;1.00
6486;DHT22;3276;48.490;9.222;2024-02-04T10:21:20;10.70;1.00
6486;DHT22;3276;48.490;9.222;2024-02-04T10:23:47;10.40;1.00
6486;DHT22;3276;48.490;9.222;2024-02-04T10:26:13;10.40;1.00
6486;DHT22;3276;48.490;9.222;2024-02-04T10:28:38;10.80;1.00
6486;DHT22;3276;48.490;9.222;2024-02-04T10:31:09;10.40;1.00
6486;DHT22;3276;48.490;9.222;2024-02-04T10:33:35;10.20;1.00
6486;DHT22;3276;48.490;9.222;2024-02-04T10:36:01;10.20;1.00
6486;DHT22;3276;48.490;9.222;2024-02-04T10:38:27;10.10;1.00
6486;DHT22;3276;48.490;9.222;2024-02-04T10:40:54;10.20;1.00
6486;DHT22;3276;48.490;9.222;2024-02-04T10:43:21;9.90;1.00
6486;DHT22;3276;48.490;9.222;2024-02-04T10:45:48;10.10;1.00
6486;DHT22;3276;48.490;9.222;2024-02-04T10:48:19;10.30;1.00
6486;DHT22;3276;48.490;9.222;2024-02-04T10:50:47;10.70;1.00
6486;DHT22;3276;48.490;9.222;2024-02-04T10:53:14;10.60;1.00
6486;DHT22;3276;48.490;9.222;2024-02-04T10:55:46;10.70;1.00
6486;DHT22;3276;48.490;9.222;2024-02-04T10:58:13;11.00;1.00
6486;DHT22;3276;48.490;9.222;2024-02-04T11:00:40;10.90;1.00
6486;DHT22;3276;48.490;9.222;2024-02-04T11:03:06;10.70;1.00
6486;DHT22;3276;48.490;9.222;2024-02-04T11:05:33;10.60;1.00
6486;DHT22;3276;48.490;9.222;2024-02-04T11:08:04;10.70;1.00
6486;DHT22;3276;48.490;9.222;2024-02-04T11:10:30;11.00;1.00
6486;DHT22;3276;48.490;9.222;2024-02-04T11:12:57;11.10;1.00
6486;DHT22;3276;48.490;9.222;2024-02-04T11:15:26;11.10;1.00
6486;DHT22;3276;48.490;9.222;2024-02-04T11:26:17;11.20;1.00
6486;DHT22;3276;48.490;9.222;2024-02-04T11:28:43;11.30;1.00
6486;DHT22;3276;48.490;9.222;2024-02-04T11:31:17;11.40;1.00
6486;DHT22;3276;48.490;9.222;2024-02-04T11:33:43;11.40;1.00
6486;DHT22;3276;48.490;9.222;2024-02-04T11:36:14;11.70;1.00
6486;DHT22;3276;48.490;9.222;2024-02-04T11:38:40;11.80;1.00
6486;DHT22;3276;48.490;9.222;2024-02-04T11:41:06;11.80;1.00
6486;DHT22;3276;48.490;9.222;2024-02-04T11:43:33;12.00;1.00
6486;DHT22;3276;48.490;9.222;2024-02-04T11:46:05;12.10;1.00
6486;DHT22;3276;48.490;9.222;2024-02-04T11:48:32;12.30;1.00
6486;DHT22;3276;48.490;9.222;2024-02-04T11:50:59;12.40;1.00
6486;DHT22;3276;48.490;9.222;2024-02-04T11:53:27;12.50;1.00
6486;DHT22;3276;48.490;9.222;2024-02-04T11:55:57;12.60;1.00
6486;DHT22;3276;48.490;9.222;2024-02-04T11:58:23;12.30;1.00
6486;DHT22;3276;48.490;9.222;2024-02-04T12:00:51;12.20;1.00
6486;DHT22;3276;48.490;9.222;2024-02-04T12:03:31;12.40;1.00
6486;DHT22;3276;48.490;9.222;2024-02-04T12:05:57;12.50;1.00
6486;DHT22;3276;48.490;9.222;2024-02-04T12:08:24;12.50;1.00
6486;DHT22;3276;48.490;9.222;2024-02-04T12:10:50;12.50;1.00
6486;DHT22;3276;48.490;9.222;2024-02-04T12:13:16;12.90;1.00
6486;DHT22;3276;48.490;9.222;2024-02-04T12:15:44;13.30;1.00
6486;DHT22;3276;48.490;9.222;2024-02-04T12:18:11;13.30;1.00
6486;DHT22;3276;48.490;9.222;2024-02-04T12:20:38;13.70;1.00
6486;DHT22;3276;48.490;9.222;2024-02-04T12:23:04;13.50;1.00
6486;DHT22;3276;48.490;9.222;2024-02-04T12:25:31;13.20;1.00
6486;DHT22;3276;48.490;9.222;2024-02-04T12:28:01;13.00;1.00
6486;DHT22;3276;48.490;9.222;2024-02-04T12:30:31;13.10;1.00
6486;DHT22;3276;48.490;9.222;2024-02-04T12:33:02;13.20;1.00
6486;DHT22;3276;48.490;9.222;2024-02-04T12:35:29;13.20;1.00
6486;DHT22;3276;48.490;9.222;2024-02-04T12:37:56;12.80;1.00
6486;DHT22;3276;48.490;9.222;2024-02-04T12:40:30;12.80;1.00
6486;DHT22;3276;48.490;9.222;2024-02-04T12:42:57;12.80;1.00
6486;DHT22;3276;48.490;9.222;2024-02-04T12:45:23;13.00;1.00
6486;DHT22;3276;48.490;9.222;2024-02-04T12:47:50;12.90;1.00
6486;DHT22;3276;48.490;9.222;2024-02-04T12:50:16;12.90;1.00
6486;DHT22;3276;48.490;9.222;2024-02-04T12:52:50;12.60;1.00
6486;DHT22;3276;48.490;9.222;2024-02-04T12:55:27;12.60;1.00
6486;DHT22;3276;48.490;9.222;2024-02-04T12:58:06;12.20;1.00
6486;DHT22;3276;48.490;9.222;2024-02-04T13:00:33;12.20;1.00
6486;DHT22;3276;48.490;9.222;2024-02-04T13:02:59;12.10;1.00
6486;DHT22;3276;48.490;9.222;2024-02-04T13:05:25;12.20;1.00
6486;DHT22;3276;48.490;9.222;2024-02-04T13:07:53;12.30;1.00
6486;DHT22;3276;48.490;9.222;2024-02-04T13:10:21;12.30;1.00
6486;DHT22;3276;48.490;9.222;2024-02-04T13:12:46;12.20;1.00
6486;DHT22;3276;48.490;9.222;2024-02-04T13:15:22;12.20;1.00
6486;DHT22;3276;48.490;9.222;2024-02-04T13:17:48;12.30;1.00
6486;DHT22;3276;48.490;9.222;2024-02-04T13:20:13;12.20;1.00
6486;DHT22;3276;48.490;9.222;2024-02-04T13:22:39;12.30;1.00
6486;DHT22;3276;48.490;9.222;2024-02-04T13:25:05;12.40;1.00
6486;DHT22;3276;48.490;9.222;2024-02-04T13:27:31;12.50;1.00
6486;DHT22;3276;48.490;9.222;2024-02-04T13:29:57;12.60;1.00
6486;DHT22;3276;48.490;9.222;2024-02-04T13:32:22;13.00;1.00
6486;DHT22;3276;48.490;9.222;2024-02-04T13:34:48;13.20;1.00
6486;DHT22;3276;48.490;9.222;2024-02-04T13:37:14;13.60;1.00
6486;DHT22;3276;48.490;9.222;2024-02-04T13:39:40;13.90;1.00
6486;DHT22;3276;48.490;9.222;2024-02-04T13:42:05;14.00;1.00
6486;DHT22;3276;48.490;9.222;2024-02-04T13:44:31;13.90;1.00
6486;DHT22;3276;48.490;9.222;2024-02-04T13:46:56;13.80;1.00
6486;DHT22;3276;48.490;9.222;2024-02-04T13:49:22;13.50;1.00
6486;DHT22;3276;48.490;9.222;2024-02-04T13:51:47;13.30;1.00
6486;DHT22;3276;48.490;9.222;2024-02-04T13:54:13;13.20;1.00
6486;DHT22;3276;48.490;9.222;2024-02-04T13:56:40;13.00;1.00
6486;DHT22;3276;48.490;9.222;2024-02-04T13:59:07;13.00;1.00
6486;DHT22;3276;48.490;9.222;2024-02-04T14:01:32;12.90;1.00
6486;DHT22;3276;48.490;9.222;2024-02-04T14:03:58;12.70;1.00
6486;DHT22;3276;48.490;9.222;2024-02-04T14:06:23;12.70;1.00
6486;DHT22;3276;48.490;9.222;2024-02-04T14:08:49;12.60;1.00
6486;DHT22;3276;48.490;9.222;2024-02-04T14:11:14;12.70;1.00
6486;DHT22;3276;48.490;9.222;2024-02-04T14:13:40;12.70;1.00
6486;DHT22;3276;48.490;9.222;2024-02-04T14:16:06;12.80;1.00
6486;DHT22;3276;48.490;9.222;2024-02-04T14:18:34;12.50;1.00
6486;DHT22;3276;48.490;9.222;2024-02-04T14:21:00;12.40;1.00
6486;DHT22;3276;48.490;9.222;2024-02-04T14:23:25;12.40;1.00
6486;DHT22;3276;48.490;9.222;2024-02-04T14:25:51;12.50;1.00
6486;DHT22;3276;48.490;9.222;2024-02-04T14:28:18;12.60;1.00
6486;DHT22;3276;48.490;9.222;2024-02-04T14:30:43;12.50;1.00
6486;DHT22;3276;48.490;9.222;2024-02-04T14:33:09;12.60;1.00
6486;DHT22;3276;48.490;9.222;2024-02-04T14:35:34;12.60;1.00
6486;DHT22;3276;48.490;9.222;2024-02-04T14:38:00;12.40;1.00
6486;DHT22;3276;48.490;9.222;2024-02-04T14:40:25;12.50;1.00
6486;DHT22;3276;48.490;9.222;2024-02-04T14:42:51;12.60;1.00
6486;DHT22;3276;48.490;9.222;2024-02-04T14:45:17;12.60;1.00
6486;DHT22;3276;48.490;9.222;2024-02-04T14:47:44;12.30;1.00
6486;DHT22;3276;48.490;9.222;2024-02-04T14:50:09;12.30;1.00
6486;DHT22;3276;48.490;9.222;2024-02-04T14:52:36;12.20;1.00
6486;DHT22;3276;48.490;9.222;2024-02-04T14:55:01;12.10;1.00
6486;DHT22;3276;48.490;9.222;2024-02-04T14:57:26;12.00;1.00
6486;DHT22;3276;48.490;9.222;2024-02-04T14:59:52;11.90;1.00
6486;DHT22;3276;48.490;9.222;2024-02-04T15:02:17;11.90;1.00
6486;DHT22;3276;48.490;9.222;2024-02-04T15:04:43;11.90;1.00
6486;DHT22;3276;48.490;9.222;2024-02-04T15:07:09;11.70;1.00
6486;DHT22;3276;48.490;9.222;2024-02-04T15:09:34;11.60;1.00
6486;DHT22;3276;48.490;9.222;2024-02-04T15:12:00;11.50;1.00
6486;DHT22;3276;48.490;9.222;2024-02-04T15:14:26;11.40;1.00
6486;DHT22;3276;48.490;9.222;2024-02-04T15:16:53;11.40;1.00
6486;DHT22;3276;48.490;9.222;2024-02-04T15:19:19;11.30;1.00
6486;DHT22;3276;48.490;9.222;2024-02-04T15:21:45;11.30;1.00
6486;DHT22;3276;48.490;9.222;2024-02-04T15:24:11;11.40;1.00
6486;DHT22;3276;48.490;9.222;2024-02-04T15:26:37;11.30;1.00
6486;DHT22;3276;48.490;9.222;2024-02-04T15:29:04;11.20;1.00
6486;DHT22;3276;48.490;9.222;2024-02-04T15:31:30;11.10;1.00
6486;DHT22;3276;48.490;9.222;2024-02-04T15:33:56;11.10;1.00
6486;DHT22;3276;48.490;9.222;2024-02-04T15:36:22;11.00;1.00
6486;DHT22;3276;48.490;9.222;2024-02-04T15:38:50;11.00;1.00
6486;DHT22;3276;48.490;9.222;2024-02-04T15:41:15;10.90;1.00
6486;DHT22;3276;48.490;9.222;2024-02-04T15:43:41;10.90;1.00
6486;DHT22;3276;48.490;9.222;2024-02-04T15:46:09;10.80;1.00
6486;DHT22;3276;48.490;9.222;2024-02-04T15:48:38;10.80;1.00
6486;DHT22;3276;48.490;9.222;2024-02-04T15:51:06;10.80;1.00
6486;DHT22;3276;48.490;9.222;2024-02-04T15:53:32;10.80;1.00
6486;DHT22;3276;48.490;9.222;2024-02-04T15:55:58;10.80;1.00
6486;DHT22;3276;48.490;9.222;2024-02-04T15:58:25;10.70;1.00
6486;DHT22;3276;48.490;9.222;2024-02-04T16:00:53;10.70;1.00
6486;DHT22;3276;48.490;9.222;2024-02-04T16:03:19;10.60;1.00
6486;DHT22;3276;48.490;9.222;2024-02-04T16:05:45;10.60;1.00
6486;DHT22;3276;48.490;9.222;2024-02-04T16:08:12;10.50;1.00
6486;DHT22;3276;48.490;9.222;2024-02-04T16:10:37;10.40;1.00
6486;DHT22;3276;48.490;9.222;2024-02-04T16:13:07;10.30;1.00
6486;DHT22;3276;48.490;9.222;2024-02-04T16:15:37;10.20;1.00
6486;DHT22;3276;48.490;9.222;2024-02-04T16:18:04;10.10;1.00
6486;DHT22;3276;48.490;9.222;2024-02-04T16:20:31;10.00;1.00
6486;DHT22;3276;48.490;9.222;2024-02-04T16:22:57;9.80;1.00
6486;DHT22;3276;48.490;9.222;2024-02-04T16:25:22;9.70;1.00
6486;DHT22;3276;48.490;9.222;2024-02-04T16:27:54;9.60;1.00
6486;DHT22;3276;48.490;9.222;2024-02-04T16:30:20;9.50;1.00
6486;DHT22;3276;48.490;9.222;2024-02-04T16:32:46;9.40;1.00
6486;DHT22;3276;48.490;9.222;2024-02-04T16:35:12;9.40;1.10